Rudolph, Texas
Current Conditions -  °F | °C
As of 2:15 PM on Friday 28 Nov 2014 (Local Time) from KBKS Reporting Station
Clear Clear  
Wind Chill: 77°   Ceiling: Unl
Heat Index: 78°   Visibility: 10mi
Dew Point: 52°   Wind: 13mph
Humidity: 42%   Direction: 170°S
Pressure: 30.17"   Gusts: 16mph
Location:  26.8954°N, 97.7184°W
Report Text: KBKS 282015Z AUTO 17011G14KT 10SM CLR 25/11 A3017 RMK AO1 T02500111
Loading
Personal Weather Stations






























Interactive Weather Map New forecast layout! Learn more

10-Day Weather Forecast

Advertisements
Track Severe Weather on mobile